Terminal Aerodrome Forecast
Issued by NWS

Current Version | Previous Version | Graphics & Text | Print | Product List | Glossary On
Versions: 1 2 3 4 5 6 7 8 9 10 11 12 13 14 15 16 17 18 19 20
073
FTUS41 KILN 271120
TAFLUK
TAF
KLUK 271120Z 2712/2812 00000KT 5SM BR FEW100
     FM271400 26003KT P6SM SKC
     FM271700 28004KT P6SM SCT060
     FM280000 00000KT P6SM SKC
     FM280600 00000KT 3SM BR SKC
     FM281000 00000KT 1/2SM FG SKC=

USA.gov is the U.S. government's official web portal to all federal, state and local government web resources and services.